Time;durP1;ratioP1;P1;durP2;ratioP2;P2;SDS_P1;SDS_P2;PMS_P1;PMS_P2;Temp;Humidity;BMP_temperature;BMP_pressure;BME280_temperature;BME280_humidity;BME280_pressure;Samples;Min_cycle;Max_cycle;Signal;HPM_P1;HPM_P2
2022/03/01 00:02:10;;;;;;;11.43;4.32;;;3.10;64.20;;;;;;5049041;28;20439;-69
2022/03/01 00:04:38;;;;;;;12.93;4.10;;;3.10;63.70;;;;;;5053705;28;20069;-66
2022/03/01 00:07:07;;;;;;;11.15;4.07;;;3.10;63.70;;;;;;5059965;28;20099;-66
2022/03/01 00:09:42;;;;;;;8.40;5.32;;;3.10;63.60;;;;;;5050271;28;20046;-66
2022/03/01 00:12:14;;;;;;;10.98;4.40;;;3.10;63.30;;;;;;5052000;28;20493;-67
2022/03/01 00:14:45;;;;;;;12.63;4.78;;;3.00;63.20;;;;;;5050923;28;20043;-68
2022/03/01 00:17:12;;;;;;;11.77;4.47;;;3.10;63.50;;;;;;5054919;28;20690;-67
2022/03/01 00:19:44;;;;;;;11.32;4.35;;;3.00;63.70;;;;;;5054127;28;20152;-66
2022/03/01 00:22:12;;;;;;;8.95;3.50;;;3.10;63.80;;;;;;5054129;28;20049;-69
2022/03/01 00:24:44;;;;;;;10.02;3.72;;;3.00;63.80;;;;;;5051340;28;20124;-67
2022/03/01 00:27:11;;;;;;;10.80;3.42;;;3.00;63.50;;;;;;5050723;28;20036;-69
2022/03/01 00:29:41;;;;;;;10.15;3.17;;;3.00;63.60;;;;;;5049106;28;20048;-67
2022/03/01 00:32:10;;;;;;;10.45;3.78;;;3.00;63.60;;;;;;5068757;28;20547;-67
2022/03/01 00:34:38;;;;;;;9.25;3.78;;;3.00;63.20;;;;;;5049934;28;20053;-68
2022/03/01 00:37:06;;;;;;;7.13;4.80;;;3.00;62.80;;;;;;5052496;28;20132;-69
2022/03/01 00:39:33;;;;;;;11.95;4.75;;;3.00;62.80;;;;;;5050634;28;20094;-69
2022/03/01 00:42:03;;;;;;;5.80;2.70;;;3.00;62.10;;;;;;5060100;28;20049;-68
2022/03/01 00:44:33;;;;;;;11.13;4.10;;;3.00;62.00;;;;;;5050478;28;20056;-68
2022/03/01 00:47:00;;;;;;;7.70;3.50;;;3.00;62.20;;;;;;5051556;28;20646;-67
2022/03/01 00:49:30;;;;;;;9.27;3.03;;;3.00;61.90;;;;;;5050099;28;20088;-68
2022/03/01 00:51:59;;;;;;;9.82;4.13;;;3.00;61.80;;;;;;5049234;28;20490;-66
2022/03/01 00:54:27;;;;;;;8.95;4.38;;;2.90;62.00;;;;;;5051327;28;20076;-67
2022/03/01 00:56:54;;;;;;;10.43;3.45;;;2.90;62.00;;;;;;5049747;28;20047;-69
2022/03/01 00:59:22;;;;;;;10.10;3.17;;;3.00;62.10;;;;;;5040668;28;20044;-66
2022/03/01 01:01:49;;;;;;;11.18;3.22;;;3.00;62.20;;;;;;5049877;28;20135;-66
2022/03/01 01:04:19;;;;;;;9.18;3.75;;;2.90;62.30;;;;;;5049980;28;20040;-68
2022/03/01 01:06:49;;;;;;;8.13;3.45;;;2.90;62.40;;;;;;5051066;28;20040;-66
2022/03/01 01:09:19;;;;;;;9.80;3.83;;;2.80;62.20;;;;;;5048261;28;20123;-65
2022/03/01 01:11:47;;;;;;;10.35;4.20;;;2.90;62.10;;;;;;5051023;28;20123;-68
2022/03/01 01:14:16;;;;;;;10.30;4.20;;;2.80;62.50;;;;;;5050618;28;20064;-66
2022/03/01 01:16:43;;;;;;;8.25;3.60;;;2.80;62.70;;;;;;5051307;28;20048;-66
2022/03/01 01:19:10;;;;;;;11.38;3.95;;;2.80;62.70;;;;;;5050926;28;20041;-68
2022/03/01 01:24:30;;;;;;;8.45;3.08;;;2.70;62.70;;;;;;5047211;28;20426;-67
2022/03/01 01:27:00;;;;;;;9.73;3.33;;;2.70;62.60;;;;;;5048544;28;20672;-67
2022/03/01 01:29:27;;;;;;;7.75;3.33;;;2.70;62.60;;;;;;5051865;28;20366;-68
2022/03/01 01:32:06;;;;;;;11.57;3.95;;;2.70;62.50;;;;;;5047134;28;20530;-66
2022/03/01 01:34:40;;;;;;;9.13;3.50;;;2.70;62.50;;;;;;5048028;28;20123;-66
2022/03/01 01:37:08;;;;;;;10.23;4.43;;;2.70;62.70;;;;;;5051172;28;20044;-66
2022/03/01 01:39:39;;;;;;;6.32;2.70;;;2.70;62.70;;;;;;5049117;28;20055;-68
2022/03/01 01:42:09;;;;;;;7.53;3.35;;;2.60;62.80;;;;;;5050274;28;20053;-68
2022/03/01 01:44:36;;;;;;;8.20;3.88;;;2.60;63.30;;;;;;5050627;28;20052;-66
2022/03/01 01:47:03;;;;;;;8.68;3.55;;;2.60;63.50;;;;;;5048947;28;20053;-66
2022/03/01 01:49:31;;;;;;;9.52;4.00;;;2.50;63.60;;;;;;5049297;28;20052;-65
2022/03/01 01:51:58;;;;;;;11.60;4.45;;;2.50;63.60;;;;;;5045006;28;20617;-67
2022/03/01 01:54:33;;;;;;;8.65;3.50;;;2.50;63.90;;;;;;5052917;28;20055;-65
2022/03/01 01:57:14;;;;;;;11.02;4.18;;;2.50;63.90;;;;;;5051215;28;20045;-66
2022/03/01 01:59:43;;;;;;;5.40;2.58;;;2.40;64.00;;;;;;5054124;28;20048;-67
2022/03/01 02:02:15;;;;;;;7.93;3.65;;;2.40;64.10;;;;;;5046600;28;20049;-66
2022/03/01 02:04:49;;;;;;;8.35;4.03;;;2.40;64.10;;;;;;5052233;28;20068;-66
2022/03/01 02:07:18;;;;;;;9.20;3.28;;;2.30;64.20;;;;;;5053205;28;20536;-66
2022/03/01 02:09:46;;;;;;;8.20;3.65;;;2.30;64.40;;;;;;5049896;28;20051;-67
2022/03/01 02:12:15;;;;;;;7.95;4.32;;;2.30;64.40;;;;;;5054043;28;20961;-67
2022/03/01 02:14:44;;;;;;;10.23;3.33;;;2.30;64.50;;;;;;5053785;28;20064;-68
2022/03/01 02:17:13;;;;;;;7.63;3.45;;;2.30;64.50;;;;;;5062163;28;20052;-68
2022/03/01 02:19:48;;;;;;;8.32;3.45;;;2.20;64.50;;;;;;5054167;28;20063;-66
2022/03/01 02:22:16;;;;;;;10.38;4.03;;;2.20;64.70;;;;;;5053244;28;20041;-67
2022/03/01 02:24:47;;;;;;;8.82;3.50;;;2.20;64.90;;;;;;5052660;28;20384;-66
2022/03/01 02:27:15;;;;;;;8.90;3.88;;;2.20;64.80;;;;;;5051940;28;20094;-66
2022/03/01 02:29:42;;;;;;;8.02;3.45;;;2.10;64.90;;;;;;5050984;28;20071;-67
2022/03/01 02:32:10;;;;;;;9.38;3.72;;;2.00;65.10;;;;;;5049184;28;20055;-67
2022/03/01 02:34:38;;;;;;;7.53;2.90;;;2.00;64.90;;;;;;5048291;28;20060;-66
2022/03/01 02:37:06;;;;;;;8.23;3.58;;;2.00;65.00;;;;;;5049956;28;20080;-69
2022/03/01 02:39:35;;;;;;;5.65;2.92;;;2.10;64.80;;;;;;5048087;28;20044;-67
2022/03/01 02:42:02;;;;;;;9.27;3.30;;;2.10;64.90;;;;;;5048901;28;20055;-67
2022/03/01 02:44:29;;;;;;;12.60;4.30;;;2.00;64.90;;;;;;5053771;28;20155;-66
2022/03/01 02:46:57;;;;;;;6.57;3.08;;;2.00;65.10;;;;;;5053224;28;20052;-65
2022/03/01 02:49:27;;;;;;;8.25;3.15;;;2.00;65.20;;;;;;5055437;28;20047;-67
2022/03/01 02:51:54;;;;;;;10.35;4.25;;;1.90;65.30;;;;;;5048374;28;20780;-67
2022/03/01 02:54:21;;;;;;;8.75;3.67;;;1.90;65.50;;;;;;5052183;28;20659;-66
2022/03/01 02:56:49;;;;;;;9.48;4.10;;;1.90;65.40;;;;;;5056889;28;20545;-66
2022/03/01 02:59:16;;;;;;;9.65;3.42;;;1.90;65.30;;;;;;5068697;28;21707;-67
2022/03/01 03:01:50;;;;;;;10.82;4.40;;;1.90;65.30;;;;;;5053185;28;20048;-66
2022/03/01 03:04:17;;;;;;;7.15;3.42;;;1.90;65.10;;;;;;5074683;28;20090;-68
2022/03/01 03:06:44;;;;;;;6.65;3.35;;;1.90;65.10;;;;;;5072687;28;20512;-66
2022/03/01 03:09:11;;;;;;;10.75;3.83;;;1.90;65.30;;;;;;5070393;28;20103;-65
2022/03/01 03:11:44;;;;;;;11.85;5.25;;;1.90;65.20;;;;;;5064810;28;20048;-66
2022/03/01 03:14:19;;;;;;;15.75;4.63;;;1.90;65.40;;;;;;5056658;28;20518;-66
2022/03/01 03:16:47;;;;;;;10.30;4.50;;;1.80;65.50;;;;;;5052952;28;20048;-67
2022/03/01 03:19:16;;;;;;;9.98;4.03;;;1.80;65.60;;;;;;5052530;28;20068;-66
2022/03/01 03:21:45;;;;;;;9.25;3.35;;;1.80;65.90;;;;;;5053312;28;20051;-66
2022/03/01 03:24:13;;;;;;;8.85;2.85;;;1.70;66.00;;;;;;5053280;28;20060;-66
2022/03/01 03:26:44;;;;;;;7.35;3.38;;;1.70;66.40;;;;;;5055946;28;20117;-66
2022/03/01 03:29:13;;;;;;;6.40;3.28;;;1.70;66.40;;;;;;5054525;28;20048;-66
2022/03/01 03:31:45;;;;;;;9.43;4.30;;;1.60;66.30;;;;;;5059024;28;20051;-65
2022/03/01 03:34:14;;;;;;;9.73;3.83;;;1.60;66.60;;;;;;5055053;28;20041;-66
2022/03/01 03:36:43;;;;;;;11.05;4.03;;;1.50;66.80;;;;;;5055255;28;20036;-65
2022/03/01 03:39:13;;;;;;;7.22;3.28;;;1.50;66.90;;;;;;5055026;28;20040;-66
2022/03/01 03:41:41;;;;;;;13.20;3.90;;;1.50;66.80;;;;;;5055699;28;20059;-66
2022/03/01 03:44:08;;;;;;;8.25;3.08;;;1.50;66.80;;;;;;5055547;28;20044;-66
2022/03/01 03:46:35;;;;;;;8.73;4.07;;;1.50;66.80;;;;;;5055745;28;20128;-67
2022/03/01 03:49:05;;;;;;;7.13;4.03;;;1.40;66.90;;;;;;5069508;28;20048;-65
2022/03/01 03:51:32;;;;;;;7.97;3.90;;;1.50;66.90;;;;;;5052316;28;20446;-65
2022/03/01 03:54:00;;;;;;;8.95;4.40;;;1.40;67.00;;;;;;5058271;28;20041;-68
2022/03/01 03:56:33;;;;;;;8.75;3.38;;;1.50;66.90;;;;;;5056520;28;20064;-66
2022/03/01 03:59:01;;;;;;;6.38;3.35;;;1.40;67.10;;;;;;5072108;28;20474;-64
2022/03/01 04:01:28;;;;;;;9.50;3.45;;;1.40;67.20;;;;;;5070873;28;20135;-69
2022/03/01 04:03:58;;;;;;;9.63;3.70;;;1.40;67.40;;;;;;5073414;28;20044;-66
2022/03/01 04:06:27;;;;;;;10.35;4.20;;;1.40;67.40;;;;;;5053778;28;20051;-66
2022/03/01 04:09:03;;;;;;;9.30;3.17;;;1.30;67.50;;;;;;5052322;28;20132;-67
2022/03/01 04:14:23;;;;;;;7.90;3.28;;;1.30;67.50;;;;;;5052882;28;20049;-66
2022/03/01 04:16:53;;;;;;;12.88;4.20;;;1.30;67.70;;;;;;5051758;28;20044;-66
2022/03/01 04:19:22;;;;;;;;;;;1.20;67.80;;;;;;5054218;28;20040;-67
2022/03/01 04:21:54;;;;;;;7.90;3.42;;;1.20;67.70;;;;;;5039869;28;19934;-69
2022/03/01 04:24:21;;;;;;;11.88;4.05;;;1.20;67.40;;;;;;5060000;28;20052;-68
2022/03/01 04:26:48;;;;;;;8.82;3.28;;;1.30;67.50;;;;;;5050782;28;20037;-67
2022/03/01 04:29:16;;;;;;;9.93;4.10;;;1.30;67.50;;;;;;5052223;28;20036;-67
2022/03/01 04:31:46;;;;;;;8.65;3.22;;;1.30;67.40;;;;;;5050919;28;20048;-66
2022/03/01 04:34:13;;;;;;;7.07;3.42;;;1.20;67.30;;;;;;5053038;28;20036;-66
2022/03/01 04:36:46;;;;;;;7.75;4.15;;;1.20;67.40;;;;;;5055857;28;20139;-66
2022/03/01 04:39:26;;;;;;;9.32;3.38;;;1.20;67.30;;;;;;5066560;28;20875;-67
2022/03/01 04:41:56;;;;;;;8.27;3.20;;;1.20;67.40;;;;;;5051398;28;20036;-66
2022/03/01 04:44:23;;;;;;;9.68;4.28;;;1.20;67.30;;;;;;5050090;28;20044;-66
2022/03/01 04:46:51;;;;;;;9.75;3.25;;;1.20;67.10;;;;;;5051877;28;20052;-67
2022/03/01 04:49:22;;;;;;;9.07;3.85;;;1.20;67.50;;;;;;5051938;28;20048;-67
2022/03/01 04:51:50;;;;;;;7.13;3.42;;;1.20;67.80;;;;;;5051483;28;20055;-67
2022/03/01 04:54:20;;;;;;;9.60;3.63;;;1.10;67.80;;;;;;5052395;28;20066;-66
2022/03/01 04:56:50;;;;;;;6.25;3.42;;;1.10;67.90;;;;;;5053835;28;20253;-65
2022/03/01 04:59:18;;;;;;;8.27;3.03;;;1.10;68.00;;;;;;5052053;28;20048;-66
2022/03/01 05:01:46;;;;;;;7.10;2.95;;;1.10;68.00;;;;;;5050497;28;20048;-65
2022/03/01 05:04:16;;;;;;;9.98;3.28;;;1.10;67.90;;;;;;5053935;28;20401;-65
2022/03/01 05:06:43;;;;;;;9.68;3.47;;;1.00;68.00;;;;;;5051001;28;20064;-66
2022/03/01 05:09:10;;;;;;;6.70;2.95;;;1.10;67.90;;;;;;5051077;28;20055;-66
2022/03/01 05:11:42;;;;;;;9.45;3.55;;;1.10;67.70;;;;;;5052620;28;20036;-65
2022/03/01 05:14:13;;;;;;;7.35;3.20;;;1.00;67.60;;;;;;5053116;28;20100;-66
2022/03/01 05:16:40;;;;;;;8.82;2.85;;;1.10;67.40;;;;;;5050496;28;20137;-66
2022/03/01 05:19:10;;;;;;;11.45;3.38;;;1.00;67.40;;;;;;5051572;28;20045;-66
2022/03/01 05:21:39;;;;;;;8.15;3.67;;;1.00;67.50;;;;;;5052998;28;20032;-66
2022/03/01 05:24:10;;;;;;;8.30;3.50;;;1.00;67.60;;;;;;5052748;28;20049;-66
2022/03/01 05:26:37;;;;;;;8.93;3.45;;;1.00;67.20;;;;;;5052198;28;20076;-65
2022/03/01 05:29:07;;;;;;;12.18;3.53;;;1.00;67.40;;;;;;5055761;28;20052;-65
2022/03/01 05:31:34;;;;;;;11.77;4.80;;;1.00;67.20;;;;;;5052195;28;20061;-66
2022/03/01 05:34:02;;;;;;;11.35;4.78;;;1.00;67.20;;;;;;5051281;28;20045;-66
2022/03/01 05:36:29;;;;;;;12.85;6.32;;;1.00;67.10;;;;;;5051707;28;20094;-66
2022/03/01 05:38:57;;;;;;;19.45;6.32;;;1.00;67.20;;;;;;5052273;28;20036;-67
2022/03/01 05:41:25;;;;;;;9.23;4.75;;;0.90;67.30;;;;;;5052198;28;20053;-66
2022/03/01 05:43:52;;;;;;;13.45;4.18;;;0.90;67.20;;;;;;5052801;28;20040;-66
2022/03/01 05:46:24;;;;;;;11.15;4.35;;;0.90;67.20;;;;;;5053687;28;20120;-65
2022/03/01 05:48:51;;;;;;;8.43;3.92;;;0.90;67.40;;;;;;5051261;28;20052;-66
2022/03/01 05:51:19;;;;;;;7.95;3.72;;;0.90;67.40;;;;;;5048086;28;20045;-68
2022/03/01 05:53:47;;;;;;;13.98;3.83;;;0.80;67.60;;;;;;5050122;28;20680;-66
2022/03/01 05:56:14;;;;;;;9.68;4.53;;;0.90;67.70;;;;;;5050959;28;20047;-68
2022/03/01 05:58:42;;;;;;;10.63;3.58;;;0.90;67.50;;;;;;5050472;28;20106;-67
2022/03/01 06:01:10;;;;;;;7.18;3.47;;;0.90;67.60;;;;;;5047551;28;20044;-66
2022/03/01 06:03:39;;;;;;;8.32;3.75;;;0.90;67.30;;;;;;5053081;28;20500;-66
2022/03/01 06:06:08;;;;;;;8.20;3.45;;;0.90;67.40;;;;;;5050593;28;20083;-66
2022/03/01 06:08:41;;;;;;;10.60;3.95;;;0.90;67.60;;;;;;5051808;28;20118;-66
2022/03/01 06:11:09;;;;;;;6.35;3.08;;;0.90;67.40;;;;;;5050304;28;20057;-68
2022/03/01 06:13:37;;;;;;;9.43;3.13;;;0.80;67.60;;;;;;5050584;28;20112;-66
2022/03/01 06:16:05;;;;;;;9.95;3.63;;;0.80;67.80;;;;;;5051524;28;20163;-66
2022/03/01 06:18:33;;;;;;;7.45;3.40;;;0.80;67.60;;;;;;5055397;28;20042;-66
2022/03/01 06:21:05;;;;;;;7.10;3.15;;;0.80;67.80;;;;;;5059494;28;20036;-66
2022/03/01 06:23:34;;;;;;;6.75;3.50;;;0.80;67.70;;;;;;5060059;28;20219;-66
2022/03/01 06:26:03;;;;;;;8.88;3.00;;;0.80;67.70;;;;;;5059131;28;20384;-67
2022/03/01 06:28:33;;;;;;;8.45;3.03;;;0.80;67.60;;;;;;5053939;28;20064;-66
2022/03/01 06:31:01;;;;;;;6.88;2.58;;;0.80;67.70;;;;;;5058867;28;20098;-66
2022/03/01 06:33:35;;;;;;;7.30;3.60;;;0.80;67.70;;;;;;5060155;28;20048;-64
2022/03/01 06:36:06;;;;;;;10.00;4.38;;;0.80;67.60;;;;;;5061123;28;20110;-65
2022/03/01 06:38:34;;;;;;;8.32;3.95;;;0.80;67.70;;;;;;5057519;28;20041;-67
2022/03/01 06:41:02;;;;;;;9.13;4.35;;;0.90;67.80;;;;;;5056769;28;20044;-65
2022/03/01 06:43:29;;;;;;;10.77;3.35;;;0.80;67.90;;;;;;5055907;28;20036;-66
2022/03/01 06:45:56;;;;;;;7.97;3.42;;;0.80;67.90;;;;;;5056454;28;20040;-66
2022/03/01 06:48:24;;;;;;;6.22;2.92;;;0.80;68.00;;;;;;5056728;28;20106;-65
2022/03/01 06:50:51;;;;;;;6.80;2.97;;;0.80;67.90;;;;;;5055781;28;20055;-65
2022/03/01 06:53:20;;;;;;;8.55;3.33;;;0.90;67.70;;;;;;5054573;28;20097;-67
2022/03/01 06:55:50;;;;;;;8.90;3.97;;;0.90;67.70;;;;;;5057363;28;20437;-66
2022/03/01 06:58:18;;;;;;;6.63;3.40;;;0.80;67.60;;;;;;5056434;28;20045;-66
2022/03/01 07:00:45;;;;;;;9.63;3.53;;;0.90;67.50;;;;;;5058217;28;20051;-66
2022/03/01 07:03:14;;;;;;;10.98;3.92;;;0.90;67.50;;;;;;5054920;28;20163;-66
2022/03/01 07:05:44;;;;;;;8.32;3.72;;;0.90;67.70;;;;;;5055515;28;20522;-66
2022/03/01 07:08:13;;;;;;;10.77;3.33;;;1.00;67.70;;;;;;5056067;28;20053;-66
2022/03/01 07:10:45;;;;;;;8.43;3.90;;;1.00;67.70;;;;;;5058471;28;20057;-66
2022/03/01 07:13:12;;;;;;;9.63;4.00;;;1.00;67.70;;;;;;5057211;28;20123;-65
2022/03/01 07:15:40;;;;;;;9.38;3.72;;;1.00;67.80;;;;;;5073966;28;20048;-66
2022/03/01 07:18:07;;;;;;;9.15;3.35;;;1.00;67.80;;;;;;5059375;28;20812;-66
2022/03/01 07:20:36;;;;;;;8.18;3.03;;;1.00;67.80;;;;;;5075419;28;20051;-66
2022/03/01 07:23:05;;;;;;;10.45;4.15;;;1.10;68.10;;;;;;5063676;28;20055;-66
2022/03/01 07:25:33;;;;;;;7.05;2.80;;;1.00;67.90;;;;;;5054197;28;20690;-66
2022/03/01 07:28:02;;;;;;;11.82;3.17;;;1.10;68.00;;;;;;5056212;28;20036;-67
2022/03/01 07:30:29;;;;;;;8.35;3.65;;;1.10;67.90;;;;;;5055284;28;20493;-65
2022/03/01 07:32:58;;;;;;;6.70;2.95;;;1.10;67.90;;;;;;5055870;28;20598;-67
2022/03/01 07:35:26;;;;;;;9.57;3.80;;;1.20;67.80;;;;;;5054592;28;20052;-68
2022/03/01 07:37:54;;;;;;;6.15;3.28;;;1.20;67.30;;;;;;5054391;28;20044;-66
2022/03/01 07:40:23;;;;;;;8.65;3.33;;;1.20;67.30;;;;;;5053180;28;20045;-66
2022/03/01 07:42:57;;;;;;;7.53;3.80;;;1.20;67.00;;;;;;5054582;28;20075;-66
2022/03/01 07:45:26;;;;;;;7.55;3.08;;;1.30;66.60;;;;;;5056066;28;20268;-65
2022/03/01 07:47:53;;;;;;;5.75;3.30;;;1.30;66.70;;;;;;5052897;28;20051;-67
2022/03/01 07:50:21;;;;;;;7.05;3.13;;;1.40;66.60;;;;;;5054695;28;20060;-68
2022/03/01 07:52:49;;;;;;;8.82;3.72;;;1.40;66.40;;;;;;5055176;28;20040;-66
2022/03/01 07:55:16;;;;;;;6.70;2.63;;;1.40;66.10;;;;;;5053443;28;20052;-66
2022/03/01 07:57:43;;;;;;;7.82;3.42;;;1.50;65.50;;;;;;5052675;28;20041;-66
2022/03/01 08:00:11;;;;;;;7.72;3.25;;;1.50;65.50;;;;;;5050323;28;20589;-67
2022/03/01 08:02:41;;;;;;;9.85;3.38;;;1.60;65.40;;;;;;5052023;28;20055;-67
2022/03/01 08:05:10;;;;;;;9.65;3.60;;;1.60;65.40;;;;;;5052437;28;20422;-67
2022/03/01 08:07:38;;;;;;;8.48;2.85;;;1.70;65.30;;;;;;5053906;28;20051;-66
2022/03/01 08:10:06;;;;;;;10.60;3.67;;;1.70;65.20;;;;;;5054605;28;20066;-67
2022/03/01 08:12:34;;;;;;;8.65;3.58;;;1.70;64.90;;;;;;5049023;28;20506;-67
2022/03/01 08:15:01;;;;;;;7.30;3.10;;;1.80;64.60;;;;;;5058289;28;20053;-68
2022/03/01 08:17:29;;;;;;;6.53;3.45;;;1.90;64.10;;;;;;5054348;28;20104;-67
2022/03/01 08:19:58;;;;;;;8.25;3.65;;;2.00;63.70;;;;;;5054686;28;20501;-67
2022/03/01 08:22:25;;;;;;;8.23;2.97;;;2.00;63.50;;;;;;5053832;28;20043;-65
2022/03/01 08:24:52;;;;;;;7.25;2.92;;;2.10;63.20;;;;;;5052138;28;20040;-67
2022/03/01 08:27:19;;;;;;;7.35;3.72;;;2.20;63.00;;;;;;5053389;28;20041;-65
2022/03/01 08:29:47;;;;;;;9.32;3.30;;;2.20;63.00;;;;;;5055015;28;20065;-66
2022/03/01 08:32:15;;;;;;;4.72;2.20;;;2.30;62.90;;;;;;5056558;28;20068;-66
2022/03/01 08:34:47;;;;;;;3.75;2.22;;;2.40;62.80;;;;;;5064639;28;20071;-67
2022/03/01 08:37:16;;;;;;;7.32;2.53;;;2.40;62.70;;;;;;5056125;28;20151;-68
2022/03/01 08:39:56;;;;;;;6.00;2.42;;;2.50;62.30;;;;;;5054401;28;20048;-66
2022/03/01 08:42:30;;;;;;;8.35;3.83;;;2.60;61.70;;;;;;5059460;28;20048;-67
2022/03/01 08:45:05;;;;;;;4.97;2.35;;;2.60;61.80;;;;;;5060375;28;20037;-68
2022/03/01 08:47:34;;;;;;;6.55;3.13;;;2.70;61.80;;;;;;5055704;28;20716;-66
2022/03/01 08:50:01;;;;;;;5.20;2.38;;;2.80;61.60;;;;;;5051231;28;20670;-67
2022/03/01 08:52:33;;;;;;;10.55;3.03;;;2.80;61.20;;;;;;5054222;28;20699;-67
2022/03/01 08:55:01;;;;;;;6.22;2.55;;;2.90;60.90;;;;;;5058903;28;20098;-67
2022/03/01 08:57:28;;;;;;;11.52;2.78;;;3.00;60.80;;;;;;5063652;28;20436;-71
2022/03/01 08:59:55;;;;;;;4.18;2.47;;;3.10;60.60;;;;;;5053357;28;20527;-67
2022/03/01 09:02:25;;;;;;;4.57;2.70;;;3.10;59.80;;;;;;5049023;28;20187;-65
2022/03/01 09:04:52;;;;;;;6.72;2.75;;;3.20;59.70;;;;;;5051849;28;20611;-66
2022/03/01 09:07:20;;;;;;;7.22;2.70;;;3.30;59.60;;;;;;5054155;28;20132;-64
2022/03/01 09:09:49;;;;;;;4.70;2.28;;;3.40;59.60;;;;;;5054884;28;20164;-68
2022/03/01 09:12:16;;;;;;;5.68;2.83;;;3.50;59.30;;;;;;5057043;28;20118;-66
2022/03/01 09:14:44;;;;;;;8.45;4.10;;;3.60;59.00;;;;;;5052211;28;20048;-66
2022/03/01 09:17:13;;;;;;;4.60;1.90;;;3.70;58.00;;;;;;5051913;28;20066;-67
2022/03/01 09:19:40;;;;;;;5.20;2.00;;;3.80;57.60;;;;;;5051422;28;20072;-66
2022/03/01 09:22:08;;;;;;;3.90;2.17;;;3.90;57.50;;;;;;5053580;28;20621;-65
2022/03/01 09:24:35;;;;;;;9.90;2.72;;;4.00;56.70;;;;;;5046961;28;20036;-66
2022/03/01 09:27:04;;;;;;;8.02;2.97;;;4.10;57.10;;;;;;5052849;28;20036;-66
2022/03/01 09:29:32;;;;;;;6.03;2.50;;;4.10;56.70;;;;;;5052345;28;20110;-68
2022/03/01 09:32:06;;;;;;;7.10;2.90;;;4.20;56.30;;;;;;5052414;28;20044;-66
2022/03/01 09:34:33;;;;;;;6.60;2.88;;;4.30;56.10;;;;;;5054882;28;20161;-66
2022/03/01 09:37:04;;;;;;;4.10;1.95;;;4.30;56.60;;;;;;5054030;28;20053;-65
2022/03/01 09:39:33;;;;;;;;;;;4.40;55.60;;;;;;5054674;28;20608;-65
2022/03/01 09:42:03;;;;;;;4.18;2.05;;;4.40;55.60;;;;;;5051265;28;19937;-66
2022/03/01 09:44:33;;;;;;;4.40;2.00;;;4.50;56.30;;;;;;5051600;28;20064;-66
2022/03/01 09:47:08;;;;;;;6.05;2.45;;;4.60;56.00;;;;;;5053243;28;20048;-67
2022/03/01 09:49:36;;;;;;;5.00;2.58;;;4.70;56.60;;;;;;5052904;28;20064;-68
2022/03/01 09:52:04;;;;;;;4.65;2.08;;;4.70;56.90;;;;;;5053076;28;20125;-66
2022/03/01 09:54:31;;;;;;;6.15;2.10;;;4.80;56.40;;;;;;5056035;28;20045;-67
2022/03/01 09:57:01;;;;;;;4.60;2.33;;;4.90;56.80;;;;;;5058205;28;20052;-66
2022/03/01 09:59:34;;;;;;;10.85;2.67;;;4.90;56.00;;;;;;5074211;28;20056;-65
2022/03/01 10:02:01;;;;;;;7.70;2.70;;;5.00;55.10;;;;;;5054672;28;20064;-66
2022/03/01 10:04:28;;;;;;;5.90;2.78;;;5.00;54.90;;;;;;5056857;28;20079;-66
2022/03/01 10:06:56;;;;;;;5.97;2.45;;;5.10;54.70;;;;;;5058011;28;20083;-65
2022/03/01 10:09:26;;;;;;;5.40;2.28;;;5.20;54.70;;;;;;5056211;28;20117;-64
2022/03/01 10:11:55;;;;;;;5.53;2.53;;;5.30;54.60;;;;;;5056628;28;20137;-66
2022/03/01 10:14:33;;;;;;;6.55;2.35;;;5.30;54.70;;;;;;5057303;28;20041;-67
2022/03/01 10:17:12;;;;;;;6.43;2.88;;;5.40;54.70;;;;;;5057801;28;20040;-67
2022/03/01 10:19:45;;;;;;;6.38;2.50;;;5.40;54.00;;;;;;5059220;28;20056;-66
2022/03/01 10:22:13;;;;;;;6.03;3.38;;;5.50;53.90;;;;;;5059556;28;20703;-66
2022/03/01 10:24:48;;;;;;;7.10;2.17;;;5.60;53.90;;;;;;5057493;28;20041;-67
2022/03/01 10:27:29;;;;;;;6.82;2.33;;;5.60;54.40;;;;;;5056472;28;20060;-66
2022/03/01 10:29:58;;;;;;;6.38;2.42;;;5.60;54.20;;;;;;5062437;28;20554;-67
2022/03/01 10:32:27;;;;;;;6.85;2.65;;;5.70;54.10;;;;;;5056322;28;20044;-66
2022/03/01 10:35:05;;;;;;;8.77;2.13;;;5.70;53.50;;;;;;5073088;28;20044;-65
2022/03/01 10:37:34;;;;;;;5.20;2.95;;;5.70;53.70;;;;;;5062506;28;20047;-67
2022/03/01 10:40:13;;;;;;;5.70;2.33;;;5.70;52.60;;;;;;5060684;28;20052;-66
2022/03/01 10:42:41;;;;;;;5.53;2.38;;;5.70;51.70;;;;;;5054319;28;20081;-66
2022/03/01 10:48:02;;;;;;;8.65;2.83;;;5.80;52.70;;;;;;5064575;28;20114;-68
2022/03/01 10:50:33;;;;;;;6.78;3.58;;;5.90;52.80;;;;;;5061986;28;20052;-66
2022/03/01 10:53:01;;;;;;;6.55;2.53;;;5.90;53.00;;;;;;5057577;28;20076;-66
2022/03/01 10:55:30;;;;;;;4.97;2.72;;;5.90;51.80;;;;;;5059345;28;20135;-67
2022/03/01 10:58:07;;;;;;;6.10;3.00;;;6.00;52.80;;;;;;5057064;28;20111;-67
2022/03/01 11:00:39;;;;;;;6.20;2.78;;;6.10;52.70;;;;;;5053110;28;20060;-70
2022/03/01 11:03:12;;;;;;;7.53;2.60;;;6.10;53.50;;;;;;5057612;28;20059;-66
2022/03/01 11:05:40;;;;;;;7.45;3.03;;;6.10;53.30;;;;;;5055354;28;20044;-68
2022/03/01 11:08:08;;;;;;;7.18;2.90;;;6.20;53.60;;;;;;5055175;28;20044;-68
2022/03/01 11:10:40;;;;;;;9.20;2.72;;;6.20;53.60;;;;;;5053687;28;20047;-67
2022/03/01 11:13:11;;;;;;;5.68;3.05;;;6.30;53.30;;;;;;5055430;28;20041;-68
2022/03/01 11:15:56;;;;;;;5.90;2.85;;;6.30;53.70;;;;;;5057414;28;20066;-67
2022/03/01 11:18:40;;;;;;;5.60;2.80;;;6.30;52.50;;;;;;5053976;28;20048;-67
2022/03/01 11:21:09;;;;;;;5.40;2.25;;;6.40;51.40;;;;;;5058085;28;20052;-68
2022/03/01 11:23:37;;;;;;;9.02;2.95;;;6.40;51.70;;;;;;5055485;28;20489;-67
2022/03/01 11:26:14;;;;;;;7.32;3.10;;;6.40;51.80;;;;;;5055649;28;20052;-66
2022/03/01 11:28:52;;;;;;;6.55;2.45;;;6.40;51.60;;;;;;5052603;28;20052;-66
2022/03/01 11:31:24;;;;;;;8.63;2.83;;;6.50;51.30;;;;;;5054808;28;20056;-70
2022/03/01 11:34:01;;;;;;;7.80;3.03;;;6.50;51.40;;;;;;5057329;28;20452;-67
2022/03/01 11:36:32;;;;;;;7.45;3.28;;;6.50;51.70;;;;;;5056311;28;20044;-66
2022/03/01 11:39:12;;;;;;;5.53;2.22;;;6.50;50.20;;;;;;5056605;28;20063;-67
2022/03/01 11:41:44;;;;;;;6.10;2.13;;;6.50;49.00;;;;;;5071875;28;20059;-67
2022/03/01 11:44:13;;;;;;;7.00;2.40;;;6.50;49.40;;;;;;5053625;28;20891;-67
2022/03/01 11:46:42;;;;;;;7.07;2.33;;;6.60;49.70;;;;;;5053914;28;20091;-66
2022/03/01 11:49:13;;;;;;;6.88;2.45;;;6.60;50.10;;;;;;5054203;28;20178;-66
2022/03/01 11:51:45;;;;;;;6.68;2.40;;;6.60;50.50;;;;;;5055737;28;20045;-69
2022/03/01 11:54:21;;;;;;;5.97;2.50;;;6.60;50.70;;;;;;5057535;28;20048;-65
2022/03/01 11:56:50;;;;;;;5.20;2.13;;;6.60;50.80;;;;;;5054955;28;20127;-67
2022/03/01 11:59:18;;;;;;;7.32;2.25;;;6.60;51.00;;;;;;5054652;28;20122;-67
2022/03/01 12:01:48;;;;;;;6.05;2.55;;;6.60;50.60;;;;;;5054195;28;20503;-68
2022/03/01 12:04:22;;;;;;;8.45;2.90;;;6.60;51.50;;;;;;5053682;28;20051;-67
2022/03/01 12:06:54;;;;;;;4.57;1.85;;;6.70;50.80;;;;;;5053107;28;20082;-66
2022/03/01 12:09:26;;;;;;;5.57;2.30;;;6.60;51.30;;;;;;5055307;28;20040;-67
2022/03/01 12:12:07;;;;;;;5.03;2.15;;;6.70;50.50;;;;;;5053761;28;20100;-66
2022/03/01 12:14:38;;;;;;;6.25;2.88;;;6.70;51.20;;;;;;5053755;28;20114;-66
2022/03/01 12:17:20;;;;;;;6.25;2.67;;;6.70;49.50;;;;;;5055816;28;20507;-67
2022/03/01 12:19:59;;;;;;;4.80;2.08;;;6.70;50.60;;;;;;5070366;28;20055;-67
2022/03/01 12:22:27;;;;;;;5.80;2.40;;;6.70;50.60;;;;;;5052728;28;20064;-68
2022/03/01 12:24:58;;;;;;;6.30;2.47;;;6.70;50.70;;;;;;5055243;28;20045;-65
2022/03/01 12:27:31;;;;;;;5.82;2.30;;;6.80;50.50;;;;;;5053781;28;20134;-67
2022/03/01 12:30:02;;;;;;;4.50;1.98;;;6.70;50.00;;;;;;5054277;28;20040;-66
2022/03/01 12:32:29;;;;;;;4.80;1.85;;;6.80;50.50;;;;;;5051779;28;20127;-66
2022/03/01 12:35:02;;;;;;;5.38;1.98;;;6.70;50.60;;;;;;5052291;28;20056;-66
2022/03/01 12:37:30;;;;;;;5.07;2.97;;;6.80;49.10;;;;;;5056791;28;20056;-67
2022/03/01 12:39:57;;;;;;;7.30;2.90;;;6.80;50.20;;;;;;5051611;28;20049;-67
2022/03/01 12:42:30;;;;;;;6.10;2.70;;;6.80;49.90;;;;;;5052873;28;20168;-68
2022/03/01 12:44:57;;;;;;;7.30;2.30;;;6.80;50.00;;;;;;5054331;28;20044;-67
2022/03/01 12:47:25;;;;;;;7.35;2.53;;;6.80;50.00;;;;;;5045457;28;20104;-68
2022/03/01 12:49:52;;;;;;;7.75;2.38;;;6.80;50.00;;;;;;5053077;28;20056;-66
2022/03/01 12:52:22;;;;;;;3.80;1.50;;;6.80;50.30;;;;;;5051250;28;20045;-68
2022/03/01 12:54:50;;;;;;;6.18;2.50;;;6.80;49.30;;;;;;5054244;28;20235;-68
2022/03/01 12:57:18;;;;;;;5.70;2.05;;;6.90;48.80;;;;;;5047494;28;20382;-69
2022/03/01 12:59:47;;;;;;;6.65;2.63;;;6.90;49.30;;;;;;5055099;28;20044;-68
2022/03/01 13:02:17;;;;;;;7.53;2.55;;;6.80;49.80;;;;;;5050426;28;20056;-68
2022/03/01 13:04:49;;;;;;;6.00;2.53;;;6.80;50.30;;;;;;5062770;28;20501;-67
2022/03/01 13:07:20;;;;;;;7.00;2.55;;;6.80;50.40;;;;;;5050936;28;20041;-68
2022/03/01 13:09:50;;;;;;;7.05;2.58;;;6.90;50.80;;;;;;5054657;28;20043;-67
2022/03/01 13:12:24;;;;;;;5.60;2.53;;;6.90;50.30;;;;;;5054408;28;20076;-66
2022/03/01 13:14:55;;;;;;;5.80;2.33;;;6.90;51.00;;;;;;5059017;28;20045;-67
2022/03/01 13:17:22;;;;;;;6.85;2.60;;;6.90;51.50;;;;;;5059344;28;20099;-67